sensor_id;sensor_type;location;lat;lon;timestamp;temperature;humidity
25512;DHT22;13414;44.534;18.700;2024-01-15T00:00:44;-1.50;1.00
25512;DHT22;13414;44.534;18.700;2024-01-15T00:03:12;-1.40;99.90
25512;DHT22;13414;44.534;18.700;2024-01-15T00:05:40;-1.40;1.00
25512;DHT22;13414;44.534;18.700;2024-01-15T00:08:09;-1.30;1.00
25512;DHT22;13414;44.534;18.700;2024-01-15T00:10:36;-1.40;1.00
25512;DHT22;13414;44.534;18.700;2024-01-15T00:13:04;-1.50;1.00
25512;DHT22;13414;44.534;18.700;2024-01-15T00:15:32;-1.40;99.90
25512;DHT22;13414;44.534;18.700;2024-01-15T00:17:59;-1.40;1.00
25512;DHT22;13414;44.534;18.700;2024-01-15T00:20:27;-1.50;1.00
25512;DHT22;13414;44.534;18.700;2024-01-15T00:22:54;-1.50;1.00
25512;DHT22;13414;44.534;18.700;2024-01-15T00:25:24;-1.60;1.00
25512;DHT22;13414;44.534;18.700;2024-01-15T00:27:51;-1.60;99.90
25512;DHT22;13414;44.534;18.700;2024-01-15T00:30:19;-1.60;86.00
25512;DHT22;13414;44.534;18.700;2024-01-15T00:32:48;-1.60;1.00
25512;DHT22;13414;44.534;18.700;2024-01-15T00:35:15;-1.60;1.00
25512;DHT22;13414;44.534;18.700;2024-01-15T00:37:43;-1.50;1.00
25512;DHT22;13414;44.534;18.700;2024-01-15T00:40:10;-1.50;99.90
25512;DHT22;13414;44.534;18.700;2024-01-15T00:42:39;-1.60;1.00
25512;DHT22;13414;44.534;18.700;2024-01-15T00:45:07;-1.80;1.00
25512;DHT22;13414;44.534;18.700;2024-01-15T00:47:34;-1.70;1.00
25512;DHT22;13414;44.534;18.700;2024-01-15T00:50:02;-1.60;1.00
25512;DHT22;13414;44.534;18.700;2024-01-15T00:52:29;-1.60;1.00
25512;DHT22;13414;44.534;18.700;2024-01-15T00:54:57;-1.60;1.00
25512;DHT22;13414;44.534;18.700;2024-01-15T00:57:24;-1.60;1.00
25512;DHT22;13414;44.534;18.700;2024-01-15T00:59:53;-1.60;1.00
25512;DHT22;13414;44.534;18.700;2024-01-15T01:02:21;-1.60;99.90
25512;DHT22;13414;44.534;18.700;2024-01-15T01:04:49;-1.70;99.90
25512;DHT22;13414;44.534;18.700;2024-01-15T01:07:16;-1.60;1.00
25512;DHT22;13414;44.534;18.700;2024-01-15T01:09:45;-1.60;1.00
25512;DHT22;13414;44.534;18.700;2024-01-15T01:12:14;-1.60;1.00
25512;DHT22;13414;44.534;18.700;2024-01-15T01:14:43;-1.60;99.90
25512;DHT22;13414;44.534;18.700;2024-01-15T01:17:12;-1.60;99.90
25512;DHT22;13414;44.534;18.700;2024-01-15T01:19:39;-1.60;99.90
25512;DHT22;13414;44.534;18.700;2024-01-15T01:22:07;-1.70;1.00
25512;DHT22;13414;44.534;18.700;2024-01-15T01:24:34;-1.60;1.00
25512;DHT22;13414;44.534;18.700;2024-01-15T01:27:02;-1.60;99.90
25512;DHT22;13414;44.534;18.700;2024-01-15T01:29:29;-1.70;1.00
25512;DHT22;13414;44.534;18.700;2024-01-15T01:31:57;-1.70;99.90
25512;DHT22;13414;44.534;18.700;2024-01-15T01:34:26;-1.70;99.90
25512;DHT22;13414;44.534;18.700;2024-01-15T01:36:53;-1.70;99.90
25512;DHT22;13414;44.534;18.700;2024-01-15T01:39:21;-1.60;99.90
25512;DHT22;13414;44.534;18.700;2024-01-15T01:41:48;-1.60;99.90
25512;DHT22;13414;44.534;18.700;2024-01-15T01:44:18;-1.70;1.00
25512;DHT22;13414;44.534;18.700;2024-01-15T01:46:45;-1.70;24.10
25512;DHT22;13414;44.534;18.700;2024-01-15T01:49:13;-1.60;92.10
25512;DHT22;13414;44.534;18.700;2024-01-15T01:51:42;-1.70;1.00
25512;DHT22;13414;44.534;18.700;2024-01-15T01:54:10;-1.70;99.90
25512;DHT22;13414;44.534;18.700;2024-01-15T01:56:40;-1.50;1.00
25512;DHT22;13414;44.534;18.700;2024-01-15T01:59:10;-1.50;1.00
25512;DHT22;13414;44.534;18.700;2024-01-15T02:01:38;-1.50;1.00
25512;DHT22;13414;44.534;18.700;2024-01-15T02:04:08;-1.40;99.90
25512;DHT22;13414;44.534;18.700;2024-01-15T02:06:35;-1.40;1.00
25512;DHT22;13414;44.534;18.700;2024-01-15T02:09:05;-1.40;99.90
25512;DHT22;13414;44.534;18.700;2024-01-15T02:11:32;-1.40;99.90
25512;DHT22;13414;44.534;18.700;2024-01-15T02:13:59;-1.50;99.90
25512;DHT22;13414;44.534;18.700;2024-01-15T02:16:27;-1.50;1.00
25512;DHT22;13414;44.534;18.700;2024-01-15T02:18:54;-1.60;1.00
25512;DHT22;13414;44.534;18.700;2024-01-15T02:21:22;-1.60;1.00
25512;DHT22;13414;44.534;18.700;2024-01-15T02:23:51;-1.50;1.00
25512;DHT22;13414;44.534;18.700;2024-01-15T02:26:18;-1.50;45.50
25512;DHT22;13414;44.534;18.700;2024-01-15T02:28:46;-1.60;1.00
25512;DHT22;13414;44.534;18.700;2024-01-15T02:31:13;-1.70;1.00
25512;DHT22;13414;44.534;18.700;2024-01-15T02:33:42;-1.60;1.00
25512;DHT22;13414;44.534;18.700;2024-01-15T02:36:12;-1.50;99.90
25512;DHT22;13414;44.534;18.700;2024-01-15T02:38:39;-1.60;99.90
25512;DHT22;13414;44.534;18.700;2024-01-15T02:41:08;-1.50;99.90
25512;DHT22;13414;44.534;18.700;2024-01-15T02:43:36;-1.60;28.80
25512;DHT22;13414;44.534;18.700;2024-01-15T02:46:04;-1.60;1.00
25512;DHT22;13414;44.534;18.700;2024-01-15T02:48:31;-1.60;1.00
25512;DHT22;13414;44.534;18.700;2024-01-15T02:50:59;-1.50;1.00
25512;DHT22;13414;44.534;18.700;2024-01-15T02:53:26;-1.50;1.00
25512;DHT22;13414;44.534;18.700;2024-01-15T02:55:56;-1.60;1.00
25512;DHT22;13414;44.534;18.700;2024-01-15T02:58:25;-1.70;1.00
25512;DHT22;13414;44.534;18.700;2024-01-15T03:00:55;-1.60;99.90
25512;DHT22;13414;44.534;18.700;2024-01-15T03:03:23;-1.60;1.00
25512;DHT22;13414;44.534;18.700;2024-01-15T03:05:50;-1.60;99.90
25512;DHT22;13414;44.534;18.700;2024-01-15T03:08:18;-1.60;1.00
25512;DHT22;13414;44.534;18.700;2024-01-15T03:10:46;-1.60;99.90
25512;DHT22;13414;44.534;18.700;2024-01-15T03:13:14;-1.50;1.00
25512;DHT22;13414;44.534;18.700;2024-01-15T03:15:43;-1.30;1.00
25512;DHT22;13414;44.534;18.700;2024-01-15T03:18:10;-1.30;1.00
25512;DHT22;13414;44.534;18.700;2024-01-15T03:20:38;-1.30;39.00
25512;DHT22;13414;44.534;18.700;2024-01-15T03:23:05;-1.30;1.00
25512;DHT22;13414;44.534;18.700;2024-01-15T03:25:33;-1.30;1.00
25512;DHT22;13414;44.534;18.700;2024-01-15T03:28:00;-1.30;1.00
25512;DHT22;13414;44.534;18.700;2024-01-15T03:30:28;-1.20;1.00
25512;DHT22;13414;44.534;18.700;2024-01-15T03:32:57;-1.20;99.90
25512;DHT22;13414;44.534;18.700;2024-01-15T03:35:24;-1.20;1.00
25512;DHT22;13414;44.534;18.700;2024-01-15T03:37:55;-1.10;99.90
25512;DHT22;13414;44.534;18.700;2024-01-15T03:40:22;-1.10;99.90
25512;DHT22;13414;44.534;18.700;2024-01-15T03:42:50;-1.10;1.00
25512;DHT22;13414;44.534;18.700;2024-01-15T03:45:18;-1.10;1.00
25512;DHT22;13414;44.534;18.700;2024-01-15T03:47:45;-1.10;1.00
25512;DHT22;13414;44.534;18.700;2024-01-15T03:50:14;-1.10;1.00
25512;DHT22;13414;44.534;18.700;2024-01-15T03:52:42;-1.10;1.00
25512;DHT22;13414;44.534;18.700;2024-01-15T03:55:09;-1.00;1.00
25512;DHT22;13414;44.534;18.700;2024-01-15T03:57:37;-1.00;99.90
25512;DHT22;13414;44.534;18.700;2024-01-15T04:00:06;-1.00;75.20
25512;DHT22;13414;44.534;18.700;2024-01-15T04:02:34;-1.20;1.00
25512;DHT22;13414;44.534;18.700;2024-01-15T04:05:02;-1.30;99.90
25512;DHT22;13414;44.534;18.700;2024-01-15T04:07:31;-1.20;1.00
25512;DHT22;13414;44.534;18.700;2024-01-15T04:09:59;-1.20;99.90
25512;DHT22;13414;44.534;18.700;2024-01-15T04:12:27;-1.10;1.00
25512;DHT22;13414;44.534;18.700;2024-01-15T04:14:54;-1.00;1.00
25512;DHT22;13414;44.534;18.700;2024-01-15T04:17:22;-1.00;1.00
25512;DHT22;13414;44.534;18.700;2024-01-15T04:19:50;-1.00;99.90
25512;DHT22;13414;44.534;18.700;2024-01-15T04:22:17;-1.00;99.90
25512;DHT22;13414;44.534;18.700;2024-01-15T04:24:46;-1.00;1.00
25512;DHT22;13414;44.534;18.700;2024-01-15T04:27:13;-0.90;99.90
25512;DHT22;13414;44.534;18.700;2024-01-15T04:29:41;-0.80;1.00
25512;DHT22;13414;44.534;18.700;2024-01-15T04:32:10;-0.80;1.00
25512;DHT22;13414;44.534;18.700;2024-01-15T04:34:37;-0.80;1.00
25512;DHT22;13414;44.534;18.700;2024-01-15T04:37:05;-0.80;1.00
25512;DHT22;13414;44.534;18.700;2024-01-15T04:39:32;-0.70;1.00
25512;DHT22;13414;44.534;18.700;2024-01-15T04:42:01;-0.60;1.00
25512;DHT22;13414;44.534;18.700;2024-01-15T04:44:29;-0.50;1.00
25512;DHT22;13414;44.534;18.700;2024-01-15T04:46:56;-0.40;99.90
25512;DHT22;13414;44.534;18.700;2024-01-15T04:49:24;-0.40;99.90
25512;DHT22;13414;44.534;18.700;2024-01-15T04:51:53;-0.40;1.00
25512;DHT22;13414;44.534;18.700;2024-01-15T04:54:20;-0.40;1.00
25512;DHT22;13414;44.534;18.700;2024-01-15T04:56:48;-0.40;1.00
25512;DHT22;13414;44.534;18.700;2024-01-15T04:59:16;-0.40;1.00
25512;DHT22;13414;44.534;18.700;2024-01-15T05:01:44;-0.30;1.00
25512;DHT22;13414;44.534;18.700;2024-01-15T05:04:11;-0.30;99.90
25512;DHT22;13414;44.534;18.700;2024-01-15T05:06:39;-0.20;99.90
25512;DHT22;13414;44.534;18.700;2024-01-15T05:09:07;-0.10;1.00
25512;DHT22;13414;44.534;18.700;2024-01-15T05:11:34;-0.10;99.90
25512;DHT22;13414;44.534;18.700;2024-01-15T05:14:02;-0.10;99.90
25512;DHT22;13414;44.534;18.700;2024-01-15T05:16:31;-0.10;99.90
25512;DHT22;13414;44.534;18.700;2024-01-15T05:18:58;-0.10;99.90
25512;DHT22;13414;44.534;18.700;2024-01-15T05:21:26;0.00;99.90
25512;DHT22;13414;44.534;18.700;2024-01-15T05:23:54;0.10;99.90
25512;DHT22;13414;44.534;18.700;2024-01-15T05:26:21;0.00;99.90
25512;DHT22;13414;44.534;18.700;2024-01-15T05:28:49;0.00;1.00
25512;DHT22;13414;44.534;18.700;2024-01-15T05:31:16;0.00;99.90
25512;DHT22;13414;44.534;18.700;2024-01-15T05:33:45;0.10;1.00
25512;DHT22;13414;44.534;18.700;2024-01-15T05:36:13;0.10;1.00
25512;DHT22;13414;44.534;18.700;2024-01-15T05:38:41;0.10;1.00
25512;DHT22;13414;44.534;18.700;2024-01-15T05:41:09;0.10;1.00
25512;DHT22;13414;44.534;18.700;2024-01-15T05:43:38;0.10;1.00
25512;DHT22;13414;44.534;18.700;2024-01-15T05:46:07;0.10;1.00
25512;DHT22;13414;44.534;18.700;2024-01-15T05:48:34;0.20;99.90
25512;DHT22;13414;44.534;18.700;2024-01-15T05:51:03;0.20;1.00
25512;DHT22;13414;44.534;18.700;2024-01-15T05:53:31;0.40;99.90
25512;DHT22;13414;44.534;18.700;2024-01-15T05:55:59;0.50;1.00
25512;DHT22;13414;44.534;18.700;2024-01-15T05:58:28;0.50;1.00
25512;DHT22;13414;44.534;18.700;2024-01-15T06:00:56;0.60;1.00
25512;DHT22;13414;44.534;18.700;2024-01-15T06:03:24;0.60;99.90
25512;DHT22;13414;44.534;18.700;2024-01-15T06:05:51;0.60;99.90
25512;DHT22;13414;44.534;18.700;2024-01-15T06:08:21;0.70;99.90
25512;DHT22;13414;44.534;18.700;2024-01-15T06:10:48;0.60;1.00
25512;DHT22;13414;44.534;18.700;2024-01-15T06:13:16;0.70;1.00
25512;DHT22;13414;44.534;18.700;2024-01-15T06:15:45;0.60;99.90
25512;DHT22;13414;44.534;18.700;2024-01-15T06:18:14;0.70;1.00
25512;DHT22;13414;44.534;18.700;2024-01-15T06:20:42;0.90;18.60
25512;DHT22;13414;44.534;18.700;2024-01-15T06:23:09;1.00;1.00
25512;DHT22;13414;44.534;18.700;2024-01-15T06:25:38;1.00;1.00
25512;DHT22;13414;44.534;18.700;2024-01-15T06:28:06;1.00;1.00
25512;DHT22;13414;44.534;18.700;2024-01-15T06:30:35;1.00;99.90
25512;DHT22;13414;44.534;18.700;2024-01-15T06:33:03;1.10;1.00
25512;DHT22;13414;44.534;18.700;2024-01-15T06:35:31;1.00;1.00
25512;DHT22;13414;44.534;18.700;2024-01-15T06:38:00;1.10;1.00
25512;DHT22;13414;44.534;18.700;2024-01-15T06:40:27;1.10;99.90
25512;DHT22;13414;44.534;18.700;2024-01-15T06:42:56;1.20;99.90
25512;DHT22;13414;44.534;18.700;2024-01-15T06:45:23;1.30;1.00
25512;DHT22;13414;44.534;18.700;2024-01-15T06:47:59;1.40;1.00
25512;DHT22;13414;44.534;18.700;2024-01-15T06:50:27;1.50;99.90
25512;DHT22;13414;44.534;18.700;2024-01-15T06:53:00;1.40;1.00
25512;DHT22;13414;44.534;18.700;2024-01-15T06:55:49;1.60;1.00
25512;DHT22;13414;44.534;18.700;2024-01-15T06:58:18;1.60;1.00
25512;DHT22;13414;44.534;18.700;2024-01-15T07:00:46;1.70;1.00
25512;DHT22;13414;44.534;18.700;2024-01-15T07:03:23;1.80;1.00
25512;DHT22;13414;44.534;18.700;2024-01-15T07:05:50;1.90;99.90
25512;DHT22;13414;44.534;18.700;2024-01-15T07:08:18;2.00;99.90
25512;DHT22;13414;44.534;18.700;2024-01-15T07:10:47;2.10;1.00
25512;DHT22;13414;44.534;18.700;2024-01-15T07:13:24;2.20;1.00
25512;DHT22;13414;44.534;18.700;2024-01-15T07:15:51;2.30;99.90
25512;DHT22;13414;44.534;18.700;2024-01-15T07:18:19;2.30;1.00
25512;DHT22;13414;44.534;18.700;2024-01-15T07:20:58;2.40;1.00
25512;DHT22;13414;44.534;18.700;2024-01-15T07:23:27;2.40;99.90
25512;DHT22;13414;44.534;18.700;2024-01-15T07:25:59;2.50;99.90
25512;DHT22;13414;44.534;18.700;2024-01-15T08:58:23;4.50;99.90
25512;DHT22;13414;44.534;18.700;2024-01-15T09:01:54;4.60;1.00
25512;DHT22;13414;44.534;18.700;2024-01-15T09:53:52;5.70;1.00
25512;DHT22;13414;44.534;18.700;2024-01-15T13:17:31;7.10;99.90
25512;DHT22;13414;44.534;18.700;2024-01-15T13:20:16;7.10;99.90
25512;DHT22;13414;44.534;18.700;2024-01-15T13:22:47;7.20;99.90
25512;DHT22;13414;44.534;18.700;2024-01-15T13:25:44;7.00;99.90
25512;DHT22;13414;44.534;18.700;2024-01-15T13:31:58;7.00;99.90
25512;DHT22;13414;44.534;18.700;2024-01-15T13:35:09;7.00;99.90
25512;DHT22;13414;44.534;18.700;2024-01-15T14:37:38;6.70;99.90
25512;DHT22;13414;44.534;18.700;2024-01-15T14:40:56;6.70;99.90
25512;DHT22;13414;44.534;18.700;2024-01-15T15:52:46;6.10;99.90
25512;DHT22;13414;44.534;18.700;2024-01-15T15:55:57;6.10;99.90
25512;DHT22;13414;44.534;18.700;2024-01-15T18:02:50;5.60;99.90
25512;DHT22;13414;44.534;18.700;2024-01-15T19:11:48;5.20;99.90
25512;DHT22;13414;44.534;18.700;2024-01-15T20:36:16;3.70;99.90
25512;DHT22;13414;44.534;18.700;2024-01-15T20:38:44;3.60;99.90
25512;DHT22;13414;44.534;18.700;2024-01-15T20:41:12;3.60;99.90
25512;DHT22;13414;44.534;18.700;2024-01-15T20:43:42;3.60;99.90
25512;DHT22;13414;44.534;18.700;2024-01-15T20:46:10;3.70;99.90
25512;DHT22;13414;44.534;18.700;2024-01-15T20:48:39;3.80;99.90
25512;DHT22;13414;44.534;18.700;2024-01-15T20:51:07;3.70;99.90
25512;DHT22;13414;44.534;18.700;2024-01-15T20:53:39;3.60;99.90
25512;DHT22;13414;44.534;18.700;2024-01-15T20:56:09;3.50;99.90
25512;DHT22;13414;44.534;18.700;2024-01-15T20:58:37;3.60;99.90
25512;DHT22;13414;44.534;18.700;2024-01-15T21:01:05;3.60;99.90
25512;DHT22;13414;44.534;18.700;2024-01-15T21:03:47;3.70;99.90
25512;DHT22;13414;44.534;18.700;2024-01-15T21:06:15;3.70;99.90
25512;DHT22;13414;44.534;18.700;2024-01-15T21:08:46;3.70;99.90
25512;DHT22;13414;44.534;18.700;2024-01-15T21:11:15;3.70;99.90
25512;DHT22;13414;44.534;18.700;2024-01-15T21:13:44;3.70;99.90
25512;DHT22;13414;44.534;18.700;2024-01-15T21:16:14;3.70;99.90
25512;DHT22;13414;44.534;18.700;2024-01-15T21:18:42;3.60;99.90
25512;DHT22;13414;44.534;18.700;2024-01-15T21:21:11;3.60;99.90
25512;DHT22;13414;44.534;18.700;2024-01-15T21:23:38;3.60;99.90
25512;DHT22;13414;44.534;18.700;2024-01-15T21:26:08;3.60;99.90
25512;DHT22;13414;44.534;18.700;2024-01-15T21:28:36;3.50;99.90
25512;DHT22;13414;44.534;18.700;2024-01-15T21:31:04;3.50;99.90
25512;DHT22;13414;44.534;18.700;2024-01-15T21:33:32;3.50;99.90
25512;DHT22;13414;44.534;18.700;2024-01-15T21:36:06;3.70;99.90
25512;DHT22;13414;44.534;18.700;2024-01-15T22:20:53;3.70;1.00
25512;DHT22;13414;44.534;18.700;2024-01-15T22:23:34;3.70;1.00
25512;DHT22;13414;44.534;18.700;2024-01-15T22:26:02;3.50;1.00
25512;DHT22;13414;44.534;18.700;2024-01-15T22:28:30;3.40;1.00
25512;DHT22;13414;44.534;18.700;2024-01-15T22:30:58;3.30;1.00
25512;DHT22;13414;44.534;18.700;2024-01-15T22:33:26;3.30;51.70
25512;DHT22;13414;44.534;18.700;2024-01-15T22:35:53;3.00;1.00
25512;DHT22;13414;44.534;18.700;2024-01-15T22:38:21;2.90;1.00
25512;DHT22;13414;44.534;18.700;2024-01-15T22:40:49;2.90;1.00
25512;DHT22;13414;44.534;18.700;2024-01-15T22:43:17;2.90;99.90
25512;DHT22;13414;44.534;18.700;2024-01-15T22:45:45;3.00;54.50
25512;DHT22;13414;44.534;18.700;2024-01-15T22:48:13;3.10;1.00
25512;DHT22;13414;44.534;18.700;2024-01-15T22:50:40;3.10;1.00
25512;DHT22;13414;44.534;18.700;2024-01-15T22:53:10;3.10;1.00
25512;DHT22;13414;44.534;18.700;2024-01-15T22:55:37;3.00;43.80
25512;DHT22;13414;44.534;18.700;2024-01-15T22:58:05;3.00;99.90
25512;DHT22;13414;44.534;18.700;2024-01-15T23:00:32;2.90;99.90
25512;DHT22;13414;44.534;18.700;2024-01-15T23:03:00;2.70;99.90
25512;DHT22;13414;44.534;18.700;2024-01-15T23:05:28;2.70;1.00
25512;DHT22;13414;44.534;18.700;2024-01-15T23:07:57;2.70;1.00
25512;DHT22;13414;44.534;18.700;2024-01-15T23:10:26;2.70;23.20
25512;DHT22;13414;44.534;18.700;2024-01-15T23:12:53;2.60;99.90
25512;DHT22;13414;44.534;18.700;2024-01-15T23:15:21;2.70;99.90
25512;DHT22;13414;44.534;18.700;2024-01-15T23:17:49;2.70;99.90
25512;DHT22;13414;44.534;18.700;2024-01-15T23:20:17;2.70;99.90
25512;DHT22;13414;44.534;18.700;2024-01-15T23:22:44;2.70;99.90
25512;DHT22;13414;44.534;18.700;2024-01-15T23:25:12;2.60;99.90
25512;DHT22;13414;44.534;18.700;2024-01-15T23:27:42;2.60;99.90
25512;DHT22;13414;44.534;18.700;2024-01-15T23:30:10;2.60;99.90
25512;DHT22;13414;44.534;18.700;2024-01-15T23:32:37;2.60;99.90
25512;DHT22;13414;44.534;18.700;2024-01-15T23:35:05;2.60;99.90
25512;DHT22;13414;44.534;18.700;2024-01-15T23:37:33;2.70;99.90
25512;DHT22;13414;44.534;18.700;2024-01-15T23:40:00;2.60;99.90
25512;DHT22;13414;44.534;18.700;2024-01-15T23:42:28;2.60;99.90
25512;DHT22;13414;44.534;18.700;2024-01-15T23:44:58;2.50;99.90
25512;DHT22;13414;44.534;18.700;2024-01-15T23:47:25;2.50;99.90
25512;DHT22;13414;44.534;18.700;2024-01-15T23:49:53;2.60;99.90
25512;DHT22;13414;44.534;18.700;2024-01-15T23:52:20;2.70;99.90
25512;DHT22;13414;44.534;18.700;2024-01-15T23:54:48;2.60;99.90
25512;DHT22;13414;44.534;18.700;2024-01-15T23:57:15;2.60;99.90
25512;DHT22;13414;44.534;18.700;2024-01-15T23:59:43;2.40;99.90
